Time;durP1;ratioP1;P1;durP2;ratioP2;P2;SDS_P1;SDS_P2;PMS_P1;PMS_P2;Temp;Humidity;BMP_temperature;BMP_pressure;BME280_temperature;BME280_humidity;BME280_pressure;Samples;Min_cycle;Max_cycle;Signal;HPM_P1;HPM_P2
2021/06/28 09:10:38;;;;;;;2.55;2.15;;;;;;;27.78;73.80;98923.11;1788186;79;22713;-72
2021/06/28 09:13:09;;;;;;;4.37;2.02;;;;;;;27.81;72.78;98924.22;1758126;81;20935;-70
2021/06/28 09:15:49;;;;;;;5.08;2.20;;;;;;;27.88;70.71;98926.81;1757719;81;21215;-72
2021/06/28 09:18:24;;;;;;;2.70;2.10;;;;;;;27.90;69.47;98927.05;1757906;81;21009;-71
2021/06/28 09:20:57;;;;;;;2.70;2.30;;;;;;;27.90;66.75;98926.19;1759511;81;20871;-71
2021/06/28 09:23:26;;;;;;;5.28;2.27;;;;;;;27.87;64.73;98924.59;1755233;81;20884;-72
2021/06/28 09:25:56;;;;;;;2.85;2.10;;;;;;;27.83;63.71;98924.47;1759710;80;20832;-69
2021/06/28 09:28:41;;;;;;;3.03;2.30;;;;;;;27.80;64.67;98929.27;1759780;81;21945;-71
2021/06/28 09:31:11;;;;;;;2.55;2.02;;;;;;;27.78;65.05;98930.75;1734206;81;21026;-68
2021/06/28 09:33:40;;;;;;;2.60;2.13;;;;;;;27.80;64.38;98926.08;1700530;83;20988;-73
2021/06/28 09:36:21;;;;;;;5.17;2.47;;;;;;;27.81;63.12;98918.80;1701463;83;21794;-69
2021/06/28 09:38:50;;;;;;;6.83;2.52;;;;;;;27.77;63.03;98918.19;1706325;83;21075;-71
2021/06/28 09:41:29;;;;;;;7.90;2.72;;;;;;;27.72;62.67;98922.25;1716790;82;21163;-71
2021/06/28 09:44:06;;;;;;;2.55;2.33;;;;;;;27.67;61.23;98923.98;1702810;83;21031;-71
2021/06/28 09:46:38;;;;;;;9.43;2.72;;;;;;;27.65;63.66;98926.44;1718349;82;21102;-69
2021/06/28 09:49:06;;;;;;;4.75;2.33;;;;;;;27.67;66.80;98918.56;1720712;82;20984;-71
2021/06/28 09:51:38;;;;;;;6.60;2.87;;;;;;;27.74;67.36;98914.86;1718619;82;21121;-66
2021/06/28 09:54:17;;;;;;;5.80;2.33;;;;;;;27.75;65.79;98920.66;1713495;82;21191;-65
2021/06/28 09:56:50;;;;;;;11.35;2.60;;;;;;;27.79;66.77;98923.48;1717605;82;20940;-70
2021/06/28 09:59:32;;;;;;;5.95;2.10;;;;;;;27.84;65.32;98920.77;1710083;84;21190;-62
2021/06/28 10:02:22;;;;;;;4.92;2.02;;;;;;;27.96;68.77;98918.09;1708297;82;21014;-63
2021/06/28 10:04:58;;;;;;;2.77;2.08;;;;;;;28.05;70.76;98912.78;1713120;82;21164;-64
2021/06/28 10:07:37;;;;;;;4.80;1.80;;;;;;;28.16;70.27;98920.90;1721377;82;21482;-63
2021/06/28 10:10:28;;;;;;;3.87;2.27;;;;;;;28.27;65.03;98917.33;1710226;82;20904;-62
2021/06/28 10:13:07;;;;;;;4.10;1.90;;;;;;;28.40;63.63;98911.29;1761783;80;21483;-64
2021/06/28 10:15:41;;;;;;;2.25;2.00;;;;;;;28.58;65.96;98920.23;1752797;80;20921;-63
2021/06/28 10:18:10;;;;;;;4.17;1.80;;;;;;;28.73;62.80;98936.09;1757090;80;21519;-62
2021/06/28 10:20:42;;;;;;;3.17;2.27;;;;;;;28.84;59.86;98925.23;1750647;80;21115;-63
2021/06/28 10:23:09;;;;;;;1.98;1.82;;;;;;;28.97;57.58;98919.64;1754330;80;20882;-63
2021/06/28 10:25:38;;;;;;;12.50;2.00;;;;;;;29.07;56.25;98918.36;1751397;80;21035;-63
2021/06/28 10:28:06;;;;;;;4.08;2.05;;;;;;;29.17;57.28;98922.50;1760479;80;20988;-63
2021/06/28 10:30:35;;;;;;;3.65;2.20;;;;;;;29.21;55.90;98926.18;1756114;80;20957;-63
2021/06/28 10:33:09;;;;;;;2.65;1.98;;;;;;;29.22;56.15;98921.61;1753094;80;21534;-63
2021/06/28 10:35:40;;;;;;;3.50;2.00;;;;;;;29.20;55.46;98920.88;1764275;80;21081;-63
2021/06/28 10:38:11;;;;;;;3.47;1.93;;;;;;;29.15;55.87;98918.06;1755454;80;20971;-63
2021/06/28 10:40:53;;;;;;;3.87;2.17;;;;;;;29.19;57.17;98920.52;1759876;80;21539;-62
2021/06/28 10:43:35;;;;;;;10.25;2.30;;;;;;;29.17;57.16;98913.86;1752275;81;21601;-63
2021/06/28 10:46:07;;;;;;;5.17;1.80;;;;;;;29.21;56.64;98903.59;1760466;80;21176;-64
2021/06/28 10:48:48;;;;;;;3.22;1.80;;;;;;;29.21;56.22;98911.73;1751498;80;21100;-63
2021/06/28 10:51:19;;;;;;;3.35;2.00;;;;;;;29.24;56.59;98915.05;1760879;80;21661;-63
2021/06/28 10:53:59;;;;;;;2.62;2.00;;;;;;;29.30;57.30;98917.23;1760487;80;20900;-62
2021/06/28 10:56:36;;;;;;;3.02;2.00;;;;;;;29.39;57.77;98916.46;1756419;80;20924;-63
2021/06/28 10:59:09;;;;;;;2.17;1.98;;;;;;;29.51;53.36;98913.70;1760471;80;21208;-62
2021/06/28 11:01:45;;;;;;;3.83;1.95;;;;;;;29.51;54.86;98917.78;1735236;80;21410;-63
2021/06/28 11:04:25;;;;;;;4.42;1.85;;;;;;;29.58;53.93;98912.16;1751914;81;21068;-63
2021/06/28 11:07:03;;;;;;;2.50;2.00;;;;;;;29.67;52.22;98907.27;1763958;80;20985;-63
2021/06/28 11:09:53;;;;;;;3.15;1.95;;;;;;;29.76;51.47;98905.95;1751582;80;21001;-63
2021/06/28 11:12:31;;;;;;;3.72;2.00;;;;;;;29.77;49.85;98902.24;1756163;80;21140;-63
2021/06/28 11:15:23;;;;;;;6.60;1.75;;;;;;;29.76;49.46;98904.59;1749617;80;21533;-62
2021/06/28 11:17:56;;;;;;;6.92;2.00;;;;;;;29.74;48.96;98898.44;1745893;80;21444;-61
2021/06/28 11:20:31;;;;;;;8.25;1.60;;;;;;;29.71;46.57;98896.48;1750142;80;20849;-60
2021/06/28 11:23:17;;;;;;;5.15;1.72;;;;;;;29.67;47.07;98897.76;1748666;80;21079;-61
2021/06/28 11:25:54;;;;;;;4.22;1.67;;;;;;;29.74;47.81;98897.58;1748383;80;21016;-61
2021/06/28 11:28:38;;;;;;;2.98;1.75;;;;;;;29.77;47.04;98899.52;1748532;80;20885;-61
2021/06/28 11:31:11;;;;;;;3.00;1.80;;;;;;;29.89;49.66;98894.88;1752293;80;20925;-61
2021/06/28 11:33:49;;;;;;;3.20;2.00;;;;;;;29.97;49.86;98890.97;1747981;80;20904;-62
2021/06/28 11:36:33;;;;;;;2.62;1.57;;;;;;;30.05;49.53;98895.75;1747642;80;21067;-61
2021/06/28 11:39:24;;;;;;;2.30;2.10;;;;;;;30.15;49.03;98898.50;1747423;80;21143;-62
2021/06/28 11:42:37;;;;;;;2.08;1.85;;;;;;;30.22;46.35;98895.08;1749574;80;20949;-61
2021/06/28 11:45:08;;;;;;;2.05;1.85;;;;;;;30.27;45.58;98900.09;1757263;80;20892;-61
2021/06/28 11:48:02;;;;;;;4.50;1.95;;;;;;;30.24;46.62;98886.27;1748885;80;20941;-60
2021/06/28 11:50:36;;;;;;;2.05;1.85;;;;;;;30.16;46.77;98898.86;1749692;80;21538;-60
2021/06/28 11:53:13;;;;;;;2.60;1.90;;;;;;;30.15;46.24;98895.28;1745943;80;21852;-62
2021/06/28 11:55:48;;;;;;;2.75;1.80;;;;;;;30.18;46.74;98890.05;1748419;80;20882;-62
2021/06/28 11:58:16;;;;;;;3.33;1.85;;;;;;;30.22;48.40;98892.86;1739016;80;21447;-61
2021/06/28 12:00:45;;;;;;;1.92;1.70;;;;;;;30.27;46.29;98891.94;1745686;80;20845;-61
2021/06/28 12:03:17;;;;;;;3.77;2.10;;;;;;;30.32;47.49;98889.69;1749013;80;20920;-61
2021/06/28 12:05:46;;;;;;;6.03;1.82;;;;;;;30.43;49.42;98888.70;1744661;82;21818;-62
2021/06/28 12:08:17;;;;;;;4.17;1.90;;;;;;;30.53;48.59;98892.30;1744719;82;21448;-62
2021/06/28 12:10:49;;;;;;;4.12;1.90;;;;;;;30.61;47.04;98882.95;1752996;80;20973;-63
2021/06/28 12:13:29;;;;;;;2.47;1.90;;;;;;;30.65;46.45;98882.52;1745712;80;21555;-63
2021/06/28 12:16:15;;;;;;;3.50;1.60;;;;;;;30.72;46.72;98882.80;1765425;80;21010;-62
2021/06/28 12:18:43;;;;;;;3.17;1.87;;;;;;;30.81;47.11;98884.70;1756701;80;22023;-63
2021/06/28 12:21:10;;;;;;;3.55;2.00;;;;;;;30.88;45.30;98881.76;1752255;82;20892;-61
2021/06/28 12:23:38;;;;;;;4.50;2.02;;;;;;;30.83;44.83;98881.84;1756580;80;20937;-63
2021/06/28 12:26:14;;;;;;;3.05;1.80;;;;;;;30.83;45.77;98881.84;1760843;80;20963;-62
2021/06/28 12:28:42;;;;;;;3.08;2.00;;;;;;;30.82;45.10;98884.20;1753559;80;20929;-62
2021/06/28 12:31:16;;;;;;;3.22;1.80;;;;;;;30.83;46.00;98877.25;1763367;80;21402;-61
2021/06/28 12:33:44;;;;;;;3.98;2.00;;;;;;;30.89;46.82;98883.98;1758166;80;20932;-63
2021/06/28 12:36:12;;;;;;;3.47;2.15;;;;;;;30.92;44.98;98874.16;1741824;80;21545;-62
2021/06/28 12:38:40;;;;;;;3.58;1.92;;;;;;;30.96;44.66;98877.81;1689242;80;21011;-62
2021/06/28 12:41:08;;;;;;;2.98;2.20;;;;;;;31.02;45.30;98876.37;1755379;80;21019;-61
2021/06/28 12:43:36;;;;;;;2.50;1.85;;;;;;;30.98;43.74;98881.25;1731222;82;21099;-61
2021/06/28 12:46:07;;;;;;;4.50;2.00;;;;;;;30.90;43.73;98883.84;1752466;82;21616;-62
2021/06/28 12:48:35;;;;;;;2.62;1.90;;;;;;;30.73;42.89;98880.44;1752577;82;21697;-63
2021/06/28 12:51:08;;;;;;;3.85;1.52;;;;;;;30.65;43.98;98879.80;1752228;80;21063;-63
2021/06/28 12:53:36;;;;;;;3.98;1.67;;;;;;;30.65;45.65;98878.94;1760795;80;21093;-60
2021/06/28 12:56:07;;;;;;;2.05;1.92;;;;;;;30.70;46.42;98883.45;1760457;80;21866;-62
2021/06/28 12:58:51;;;;;;;2.90;2.17;;;;;;;30.69;45.19;98879.87;1752217;80;21063;-62
2021/06/28 13:01:36;;;;;;;5.42;1.77;;;;;;;30.70;45.33;98873.42;1760258;80;21471;-66
2021/06/28 13:04:24;;;;;;;3.47;1.70;;;;;;;30.76;45.86;98873.87;1764992;80;20943;-65
2021/06/28 13:06:54;;;;;;;1.82;1.62;;;;;;;30.88;46.93;98883.13;1756347;80;21695;-66
2021/06/28 13:09:24;;;;;;;2.98;1.98;;;;;;;30.99;46.13;98876.16;1753489;80;21121;-66
2021/06/28 13:11:57;;;;;;;;;;;;;;;31.08;46.00;98877.14;1751928;80;20979;-66
2021/06/28 13:14:31;;;;;;;2.12;1.92;;;;;;;31.10;44.28;98875.64;1752991;80;20097;-66
2021/06/28 13:17:27;;;;;;;3.25;2.10;;;;;;;31.03;43.86;98879.95;1752440;80;20984;-66
2021/06/28 13:19:36;;;;;;;2.10;1.90;;;;;;;30.91;44.22;98877.38;1735730;81;21062;-66
2021/06/28 13:22:05;;;;;;;4.80;1.90;;;;;;;30.77;43.41;98876.46;1748323;80;21829;-66
2021/06/28 13:24:34;;;;;;;2.12;1.60;;;;;;;30.66;44.10;98878.80;1748112;80;21068;-66
2021/06/28 13:27:06;;;;;;;5.55;1.95;;;;;;;30.55;44.61;98882.13;1748206;80;21058;-68
2021/06/28 13:29:42;;;;;;;;;;;;;;;30.44;44.11;98870.87;1755349;80;21057;-65
2021/06/28 13:32:26;;;;;;;3.15;1.80;;;;;;;30.32;44.95;98885.61;1755123;80;20140;-65
2021/06/28 13:34:56;;;;;;;4.53;2.25;;;;;;;30.17;45.51;98875.59;1747285;80;21499;-65
2021/06/28 13:37:33;;;;;;;3.85;2.47;;;;;;;30.07;46.89;98882.38;1743808;80;21012;-63
2021/06/28 13:40:06;;;;;;;4.05;2.27;;;;;;;29.98;48.45;98874.16;1752120;80;20945;-62
2021/06/28 13:42:37;;;;;;;3.95;2.10;;;;;;;29.88;48.66;98876.84;1746489;80;21051;-62
2021/06/28 13:45:15;;;;;;;2.67;1.90;;;;;;;29.75;49.53;98876.19;1750569;80;21504;-63
2021/06/28 13:48:04;;;;;;;4.35;2.17;;;;;;;29.68;50.35;98871.80;1752352;80;21153;-62
2021/06/28 13:50:36;;;;;;;2.92;1.80;;;;;;;29.69;51.69;98869.44;1748477;80;21570;-62
2021/06/28 13:53:09;;;;;;;;;;;;;;;29.77;52.39;98864.67;1754262;80;20961;-62
2021/06/28 13:55:40;;;;;;;3.77;2.20;;;;;;;29.86;51.11;98867.96;1748543;80;20156;-62
2021/06/28 13:58:10;;;;;;;3.30;2.03;;;;;;;29.93;51.79;98874.56;1754852;80;21011;-62
2021/06/28 14:00:43;;;;;;;3.47;1.82;;;;;;;30.00;51.55;98871.66;1744828;80;22196;-63
2021/06/28 14:03:13;;;;;;;6.50;2.20;;;;;;;30.04;51.94;98870.41;1744281;81;20948;-62
2021/06/28 14:05:41;;;;;;;3.08;2.05;;;;;;;30.07;50.89;98865.19;1745439;80;20949;-63
2021/06/28 14:08:10;;;;;;;2.87;1.70;;;;;;;30.05;49.25;98869.91;1751139;80;21000;-62
2021/06/28 14:10:38;;;;;;;3.90;2.10;;;;;;;30.05;48.06;98870.77;1744668;80;21578;-63
2021/06/28 14:13:06;;;;;;;9.58;2.20;;;;;;;30.04;46.77;98875.84;1746987;80;21166;-63
2021/06/28 14:15:35;;;;;;;2.70;2.00;;;;;;;29.99;47.30;98867.21;1730543;81;20963;-62
2021/06/28 14:18:03;;;;;;;3.40;2.10;;;;;;;29.97;47.83;98866.49;1754704;80;21057;-65
2021/06/28 14:20:32;;;;;;;2.30;2.00;;;;;;;29.99;48.79;98873.16;1697337;83;21452;-64
2021/06/28 14:23:00;;;;;;;4.22;1.67;;;;;;;30.01;49.21;98872.52;1751361;80;20955;-64
2021/06/28 14:25:28;;;;;;;2.65;1.80;;;;;;;30.02;48.34;98872.91;1746816;80;21787;-62
2021/06/28 14:27:56;;;;;;;4.33;2.00;;;;;;;29.99;48.12;98867.21;1745585;80;20898;-64
2021/06/28 14:30:26;;;;;;;3.45;2.10;;;;;;;29.99;48.35;98866.36;1745024;82;20929;-63
2021/06/28 14:32:54;;;;;;;3.08;2.00;;;;;;;29.98;47.84;98863.27;1744977;82;20993;-63
2021/06/28 14:35:22;;;;;;;5.97;2.15;;;;;;;29.98;46.84;98863.27;1744636;82;20866;-63
2021/06/28 14:37:51;;;;;;;4.87;1.87;;;;;;;29.99;47.12;98854.11;1744373;80;22751;-61
2021/06/28 14:40:20;;;;;;;4.72;1.80;;;;;;;30.03;48.03;98861.03;1744800;80;21585;-62
2021/06/28 14:42:52;;;;;;;2.45;2.00;;;;;;;30.06;47.97;98851.23;1750648;80;20928;-63
2021/06/28 14:45:20;;;;;;;3.85;2.20;;;;;;;30.06;47.43;98858.03;1752341;80;21063;-63
2021/06/28 14:47:52;;;;;;;5.00;2.20;;;;;;;30.03;47.93;98849.66;1743930;82;21060;-62
2021/06/28 14:50:23;;;;;;;2.22;1.90;;;;;;;30.00;48.86;98855.34;1748115;80;22120;-62
2021/06/28 14:52:51;;;;;;;4.22;2.10;;;;;;;29.94;49.70;98859.11;1743912;81;21009;-61
2021/06/28 14:55:19;;;;;;;5.03;2.22;;;;;;;29.91;50.88;98854.81;1743838;82;21177;-62
2021/06/28 14:57:48;;;;;;;3.30;2.35;;;;;;;29.89;50.69;98856.81;1743849;82;21044;-62
2021/06/28 15:00:17;;;;;;;2.35;2.12;;;;;;;29.88;51.19;98855.09;1747987;80;21000;-62
2021/06/28 15:02:45;;;;;;;3.27;1.90;;;;;;;29.91;52.45;98862.97;1761050;80;21144;-62
2021/06/28 15:05:15;;;;;;;3.33;2.33;;;;;;;29.94;52.78;98861.33;1746265;80;21575;-61
2021/06/28 15:07:44;;;;;;;5.15;2.17;;;;;;;29.97;52.81;98856.97;1752318;80;20984;-62
2021/06/28 15:10:12;;;;;;;7.03;2.17;;;;;;;29.99;51.65;98862.27;1746868;80;20960;-63
2021/06/28 15:12:40;;;;;;;3.33;2.00;;;;;;;29.94;50.84;98861.83;1756555;80;20987;-62
2021/06/28 15:15:10;;;;;;;2.85;1.98;;;;;;;29.80;50.46;98867.63;1752329;80;21167;-63
2021/06/28 15:17:38;;;;;;;3.83;2.33;;;;;;;29.63;50.55;98874.06;1748132;80;21463;-64
2021/06/28 15:20:07;;;;;;;4.25;2.47;;;;;;;29.51;52.75;98869.72;1748408;80;21034;-63
2021/06/28 15:22:36;;;;;;;3.37;2.55;;;;;;;29.44;54.11;98864.47;1747533;80;20949;-62
2021/06/28 15:25:05;;;;;;;4.30;2.47;;;;;;;29.41;54.78;98875.08;1748398;80;21114;-62
2021/06/28 15:27:32;;;;;;;3.55;2.10;;;;;;;29.41;56.27;98871.00;1698801;83;21144;-62
2021/06/28 15:30:00;;;;;;;6.58;2.12;;;;;;;29.41;57.22;98871.49;1690940;83;21068;-62
2021/06/28 15:32:28;;;;;;;3.10;2.30;;;;;;;29.41;56.33;98871.00;1715891;83;20976;-62
2021/06/28 15:34:56;;;;;;;3.72;2.40;;;;;;;29.39;53.46;98870.27;1748102;80;21030;-62
2021/06/28 15:37:26;;;;;;;3.83;2.10;;;;;;;29.40;54.18;98869.77;1750315;80;21579;-64
2021/06/28 15:39:53;;;;;;;3.50;2.10;;;;;;;29.38;53.98;98864.48;1746386;80;21122;-62
2021/06/28 15:42:23;;;;;;;2.60;2.15;;;;;;;29.35;54.17;98863.88;1749125;80;21036;-63
2021/06/28 15:44:51;;;;;;;4.05;2.33;;;;;;;29.32;54.83;98866.34;1748102;80;21134;-64
2021/06/28 15:47:19;;;;;;;4.25;2.20;;;;;;;29.28;53.52;98863.53;1699120;83;21556;-62
2021/06/28 15:49:48;;;;;;;68.97;5.85;;;;;;;29.23;53.43;98867.14;1753159;80;21470;-61
2021/06/28 15:52:16;;;;;;;10.55;3.20;;;;;;;29.18;53.80;98857.67;1749505;80;21132;-61
2021/06/28 15:54:44;;;;;;;6.62;3.50;;;;;;;29.14;54.53;98861.16;1752532;80;21529;-63
2021/06/28 15:57:12;;;;;;;5.83;3.90;;;;;;;29.11;55.55;98861.42;1747799;80;21026;-63
2021/06/28 15:59:40;;;;;;;4.67;2.87;;;;;;;29.09;56.27;98859.34;1748337;80;20952;-63
2021/06/28 16:02:08;;;;;;;4.42;3.20;;;;;;;29.01;53.75;98858.65;1747160;80;21011;-63
2021/06/28 16:04:36;;;;;;;5.22;3.77;;;;;;;28.91;53.20;98859.58;1750241;80;21999;-63
2021/06/28 16:07:04;;;;;;;6.95;3.87;;;;;;;28.83;53.61;98856.09;1746098;80;20995;-62
2021/06/28 16:09:33;;;;;;;6.28;3.10;;;;;;;28.75;53.52;98854.04;1747799;80;20870;-63
2021/06/28 16:12:01;;;;;;;5.97;2.75;;;;;;;28.72;54.26;98851.59;1747521;80;21518;-63
2021/06/28 16:14:33;;;;;;;4.70;3.02;;;;;;;28.67;54.27;98851.61;1750496;80;21565;-63
2021/06/28 16:17:06;;;;;;;4.65;2.80;;;;;;;28.63;54.33;98855.58;1743930;80;21943;-64
2021/06/28 16:19:29;;;;;;;6.10;2.52;;;;;;;28.59;55.52;98843.27;1747956;80;21559;-64
2021/06/28 16:22:02;;;;;;;2.75;2.10;;;;;;;28.53;56.37;98850.94;1747326;80;21012;-63
2021/06/28 16:24:33;;;;;;;2.40;2.20;;;;;;;28.49;56.44;98851.33;1749947;80;21049;-63
2021/06/28 16:27:03;;;;;;;2.98;2.30;;;;;;;28.45;55.77;98855.28;1746887;80;21062;-64
2021/06/28 16:29:31;;;;;;;3.10;2.37;;;;;;;28.38;55.00;98849.52;1749299;80;21155;-63
2021/06/28 16:31:59;;;;;;;4.35;1.85;;;;;;;28.33;55.46;98853.58;1748678;80;21179;-64
2021/06/28 16:34:26;;;;;;;2.60;2.37;;;;;;;28.26;55.02;98848.30;1743778;80;21565;-63
2021/06/28 16:36:54;;;;;;;4.30;2.20;;;;;;;28.17;55.12;98854.82;1750855;80;21038;-63
2021/06/28 16:39:22;;;;;;;3.45;2.10;;;;;;;28.09;55.71;98851.88;1751371;80;21076;-63
2021/06/28 16:41:50;;;;;;;3.98;2.10;;;;;;;28.02;56.29;98852.02;1748704;80;21178;-64
2021/06/28 16:44:18;;;;;;;25.10;3.10;;;;;;;27.96;58.06;98851.67;1748622;80;21622;-64
2021/06/28 16:46:46;;;;;;;4.67;2.10;;;;;;;27.88;58.97;98849.06;1746464;80;21797;-63
2021/06/28 16:49:16;;;;;;;7.00;2.10;;;;;;;27.81;60.00;98851.05;1749487;80;21023;-63
2021/06/28 16:51:44;;;;;;;5.30;2.20;;;;;;;27.75;61.77;98852.41;1749038;80;20901;-62
2021/06/28 16:54:13;;;;;;;4.00;2.33;;;;;;;27.67;62.73;98848.59;1745347;80;21114;-63
2021/06/28 16:56:42;;;;;;;2.77;2.27;;;;;;;27.60;63.21;98853.61;1754136;80;20971;-62
2021/06/28 16:59:11;;;;;;;5.47;2.10;;;;;;;27.51;64.18;98855.71;1752736;80;21415;-62
2021/06/28 17:01:44;;;;;;;6.67;2.60;;;;;;;27.44;65.12;98849.92;1744906;80;20935;-62
2021/06/28 17:04:10;;;;;;;;;;;;;;;27.36;66.67;98850.99;1747138;81;21395;-64
2021/06/28 17:06:38;;;;;;;4.62;2.30;;;;;;;27.28;67.02;98854.81;1744524;81;21173;-62
2021/06/28 17:09:07;;;;;;;3.85;2.47;;;;;;;27.19;67.38;98854.18;1744538;80;20959;-63
2021/06/28 17:11:37;;;;;;;4.05;2.80;;;;;;;27.10;68.40;98853.55;1748617;81;21014;-68
2021/06/28 17:14:06;;;;;;;5.80;2.55;;;;;;;27.00;69.04;98851.20;1757859;80;21553;-63
2021/06/28 17:16:35;;;;;;;4.87;3.12;;;;;;;26.90;70.64;98850.49;1758026;80;21580;-63
2021/06/28 17:19:03;;;;;;;3.37;2.65;;;;;;;26.82;72.19;98858.84;1757965;81;21186;-64
2021/06/28 17:21:32;;;;;;;4.40;2.52;;;;;;;26.72;72.78;98857.33;1757766;80;20967;-64
2021/06/28 17:24:00;;;;;;;6.58;2.80;;;;;;;26.62;71.88;98855.83;1757786;81;20959;-63
2021/06/28 17:26:28;;;;;;;7.80;2.87;;;;;;;26.53;73.16;98860.59;1757746;80;20952;-63
2021/06/28 17:28:56;;;;;;;7.67;3.12;;;;;;;26.46;74.49;98859.78;1757817;80;20940;-64
2021/06/28 17:31:24;;;;;;;4.22;3.70;;;;;;;26.38;76.17;98863.55;1757938;81;21347;-64
2021/06/28 17:33:52;;;;;;;27.40;3.67;;;;;;;26.29;77.37;98863.23;1758137;81;20943;-63
2021/06/28 17:36:24;;;;;;;7.15;3.20;;;;;;;26.20;79.28;98863.92;1763109;80;21545;-65
2021/06/28 17:38:53;;;;;;;3.80;2.77;;;;;;;26.12;80.33;98858.72;1756878;81;20943;-65
2021/06/28 17:41:22;;;;;;;7.62;2.85;;;;;;;26.02;81.32;98859.40;1752316;82;21079;-65
2021/06/28 17:43:50;;;;;;;6.37;3.00;;;;;;;25.93;82.79;98861.40;1752337;82;21223;-65
2021/06/28 17:46:18;;;;;;;3.47;2.85;;;;;;;25.85;84.21;98858.39;1752235;81;20865;-65
2021/06/28 17:48:47;;;;;;;4.67;2.75;;;;;;;25.77;84.98;98849.13;1752449;82;20964;-65
2021/06/28 17:51:16;;;;;;;9.05;2.95;;;;;;;25.67;86.61;98856.55;1752364;81;20955;-64
2021/06/28 17:53:46;;;;;;;6.10;3.42;;;;;;;25.58;86.79;98856.32;1752495;82;21411;-64
2021/06/28 17:56:18;;;;;;;3.77;3.00;;;;;;;25.49;87.79;98852.90;1752368;82;21145;-64
2021/06/28 17:58:48;;;;;;;6.63;3.40;;;;;;;25.39;88.78;98856.26;1752572;81;20888;-64
2021/06/28 18:01:16;;;;;;;9.98;3.95;;;;;;;25.29;89.63;98859.72;1752614;82;20931;-65
2021/06/28 18:03:45;;;;;;;9.18;3.80;;;;;;;25.21;91.03;98864.80;1752354;82;21008;-65
2021/06/28 18:06:13;;;;;;;9.40;3.33;;;;;;;25.13;91.31;98863.13;1752652;81;20887;-65
2021/06/28 18:08:42;;;;;;;9.43;3.33;;;;;;;25.05;91.38;98862.28;1752410;82;21509;-65
2021/06/28 18:11:11;;;;;;;10.88;3.87;;;;;;;24.96;91.56;98861.54;1752217;82;20928;-66
2021/06/28 18:13:41;;;;;;;6.60;3.20;;;;;;;24.89;91.49;98866.50;1752373;81;21633;-65
2021/06/28 18:16:09;;;;;;;5.58;3.60;;;;;;;24.81;91.45;98864.81;1752461;82;20907;-67
2021/06/28 18:18:39;;;;;;;9.23;3.50;;;;;;;24.73;92.63;98865.83;1752484;81;20927;-67
2021/06/28 18:21:10;;;;;;;9.08;3.40;;;;;;;24.67;92.56;98862.20;1752455;82;21467;-66
2021/06/28 18:23:40;;;;;;;4.22;3.20;;;;;;;24.59;93.50;98868.57;1752212;82;20884;-67
2021/06/28 18:26:08;;;;;;;5.20;3.45;;;;;;;24.52;94.44;98871.30;1751979;82;20896;-67
2021/06/28 18:28:36;;;;;;;9.25;3.90;;;;;;;24.44;95.84;98863.25;1752293;82;20892;-66
2021/06/28 18:31:07;;;;;;;22.48;4.65;;;;;;;24.39;96.99;98874.83;1752288;82;21062;-67
2021/06/28 18:33:36;;;;;;;9.73;4.30;;;;;;;24.34;98.62;98871.57;1752314;82;21161;-67
2021/06/28 18:36:05;;;;;;;8.75;3.87;;;;;;;24.26;98.97;98875.71;1752401;81;21358;-67
2021/06/28 18:38:33;;;;;;;7.95;3.95;;;;;;;24.21;99.60;98880.54;1752304;82;20896;-66
2021/06/28 18:41:01;;;;;;;4.45;3.17;;;;;;;24.14;100.00;98880.08;1752321;82;21047;-67
2021/06/28 18:43:30;;;;;;;13.18;4.25;;;;;;;24.08;100.00;98874.58;1752259;82;21082;-67
2021/06/28 18:46:04;;;;;;;26.87;4.85;;;;;;;24.03;100.00;98876.71;1752269;82;21164;-63
2021/06/28 18:48:34;;;;;;;23.87;5.50;;;;;;;23.97;100.00;98874.42;1752325;82;21529;-66
2021/06/28 18:51:03;;;;;;;7.28;4.37;;;;;;;23.91;100.00;98878.86;1725496;82;20955;-65
2021/06/28 18:53:36;;;;;;;7.95;4.03;;;;;;;23.82;100.00;98874.94;1752410;82;20943;-66
2021/06/28 18:58:53;;;;;;;29.18;4.83;;;;;;;23.71;100.00;98885.53;1752335;82;21128;-64
2021/06/28 19:01:21;;;;;;;13.48;4.67;;;;;;;23.60;100.00;98885.31;1725596;82;20903;-64
2021/06/28 19:03:50;;;;;;;13.75;4.87;;;;;;;23.53;100.00;98887.50;1752273;82;21007;-66
2021/06/28 19:06:18;;;;;;;6.67;4.40;;;;;;;23.48;100.00;98888.75;1752330;82;21043;-66
2021/06/28 19:08:48;;;;;;;20.12;5.75;;;;;;;23.42;100.00;98890.48;1752274;82;21026;-65
2021/06/28 19:11:18;;;;;;;23.38;5.80;;;;;;;23.36;100.00;98887.70;1752479;82;21819;-66
2021/06/28 19:13:50;;;;;;;11.73;7.05;;;;;;;23.30;100.00;98890.77;1704352;81;21037;-67
2021/06/28 19:16:19;;;;;;;13.10;7.60;;;;;;;23.24;100.00;98892.50;1733905;82;21086;-65
2021/06/28 19:18:47;;;;;;;11.63;7.65;;;;;;;23.19;100.00;98891.91;1700633;83;20994;-66
2021/06/28 19:21:17;;;;;;;11.80;8.43;;;;;;;23.15;100.00;98892.55;1745662;82;21240;-65
2021/06/28 19:23:45;;;;;;;13.10;7.95;;;;;;;23.08;100.00;98887.16;1734773;82;21538;-63
2021/06/28 19:26:13;;;;;;;12.78;7.12;;;;;;;23.05;100.00;98888.70;1732475;81;21006;-63
2021/06/28 19:28:40;;;;;;;11.63;6.97;;;;;;;23.02;100.00;98890.23;1735713;82;21023;-63
2021/06/28 19:31:09;;;;;;;10.13;6.47;;;;;;;23.00;100.00;98893.97;1744102;81;21557;-59
2021/06/28 19:33:37;;;;;;;13.48;6.35;;;;;;;22.98;100.00;98895.41;1741207;81;21473;-64
2021/06/28 19:36:08;;;;;;;12.33;6.00;;;;;;;22.94;100.00;98892.52;1731048;81;21148;-64
2021/06/28 19:38:36;;;;;;;7.83;6.00;;;;;;;22.88;100.00;98897.79;1740081;81;20846;-64
2021/06/28 19:41:04;;;;;;;7.95;5.40;;;;;;;22.84;100.00;98903.45;1735134;81;21514;-63
2021/06/28 19:43:32;;;;;;;9.48;5.70;;;;;;;22.79;100.00;98902.83;1732617;81;20971;-64
2021/06/28 19:46:00;;;;;;;7.58;5.42;;;;;;;22.73;100.00;98905.88;1700823;83;20963;-65
2021/06/28 19:48:28;;;;;;;11.08;6.47;;;;;;;22.66;100.00;98905.34;1730350;82;21165;-64
2021/06/28 19:50:56;;;;;;;19.25;7.90;;;;;;;22.61;100.00;98911.47;1742322;81;21491;-64
2021/06/28 19:53:24;;;;;;;16.32;7.62;;;;;;;22.57;100.00;98909.92;1700852;83;20951;-64
2021/06/28 19:55:52;;;;;;;22.62;7.92;;;;;;;22.54;100.00;98909.63;1744758;82;20986;-64
2021/06/28 19:58:20;;;;;;;22.80;9.50;;;;;;;22.50;100.00;98914.79;1740204;82;21105;-67
2021/06/28 20:00:48;;;;;;;39.90;11.68;;;;;;;22.45;100.00;98920.91;1731742;81;21477;-66
2021/06/28 20:03:15;;;;;;;25.25;10.43;;;;;;;22.43;100.00;98925.52;1738619;82;21007;-64
2021/06/28 20:05:44;;;;;;;23.47;9.95;;;;;;;22.39;100.00;98932.02;1740487;81;21019;-65
2021/06/28 20:08:13;;;;;;;18.02;9.28;;;;;;;22.35;100.00;98934.50;1739790;81;21011;-63
2021/06/28 20:10:41;;;;;;;16.67;8.83;;;;;;;22.32;100.00;98930.64;1733232;81;21307;-64
2021/06/28 20:13:09;;;;;;;15.70;9.60;;;;;;;22.28;100.00;98934.46;1745809;80;21579;-64
2021/06/28 20:15:37;;;;;;;15.18;9.28;;;;;;;22.25;100.00;98934.16;1746262;80;21507;-65
2021/06/28 20:18:06;;;;;;;12.07;9.13;;;;;;;22.22;100.00;98928.92;1744226;80;20992;-65
2021/06/28 20:20:34;;;;;;;14.65;9.60;;;;;;;22.20;100.00;98920.56;1745891;80;21022;-65
2021/06/28 20:23:03;;;;;;;19.80;10.25;;;;;;;22.18;100.00;98920.66;1748149;80;21660;-65
2021/06/28 20:25:33;;;;;;;14.15;9.70;;;;;;;22.18;100.00;98922.47;1755717;80;21772;-64
2021/06/28 20:28:02;;;;;;;13.15;9.93;;;;;;;22.16;100.00;98919.88;1752073;80;21574;-64
2021/06/28 20:30:35;;;;;;;20.20;9.68;;;;;;;22.16;100.00;98924.38;1755132;80;28306;-64
2021/06/28 20:33:03;;;;;;;14.05;9.50;;;;;;;22.13;100.00;98916.50;1749187;80;20976;-65
2021/06/28 20:35:32;;;;;;;20.02;9.78;;;;;;;22.10;100.00;98915.33;1747573;80;20949;-64
2021/06/28 20:38:01;;;;;;;15.85;9.68;;;;;;;22.08;100.00;98912.73;1743894;81;21585;-65
2021/06/28 20:40:31;;;;;;;15.53;9.78;;;;;;;22.04;100.00;98913.86;1684362;83;21017;-63
2021/06/28 20:43:00;;;;;;;14.13;9.75;;;;;;;22.03;100.00;98909.88;1693336;83;21459;-64
2021/06/28 20:45:29;;;;;;;15.53;9.35;;;;;;;22.00;100.00;98911.78;1659199;85;21598;-64
2021/06/28 20:47:58;;;;;;;12.70;8.03;;;;;;;22.00;100.00;98920.32;1624534;86;21165;-64
2021/06/28 20:50:26;;;;;;;11.65;6.95;;;;;;;21.96;100.00;98920.10;1690408;83;21725;-63
2021/06/28 20:52:54;;;;;;;9.60;7.47;;;;;;;21.91;100.00;98920.36;1657728;85;21510;-63
2021/06/28 20:55:24;;;;;;;9.65;7.20;;;;;;;21.84;100.00;98914.94;1691443;83;21554;-65
2021/06/28 20:57:53;;;;;;;14.38;9.00;;;;;;;21.74;100.00;98927.59;1690975;83;21074;-64
2021/06/28 21:00:22;;;;;;;19.05;10.72;;;;;;;21.64;100.00;98920.52;1691109;83;21574;-64
2021/06/28 21:02:51;;;;;;;20.30;11.83;;;;;;;21.56;100.00;98916.91;1684389;83;21106;-64